Time;durP1;ratioP1;P1;durP2;ratioP2;P2;SDS_P1;SDS_P2;PMS_P1;PMS_P2;Temp;Humidity;BMP_temperature;BMP_pressure;BME280_temperature;BME280_humidity;BME280_pressure;Samples;Min_cycle;Max_cycle;Signal;HPM_P1;HPM_P2
2022/04/30 00:00:05;;;;;;;13.07;10.38;;;;;;;9.49;58.34;101634.78;5030346;28;20071;-25
2022/04/30 00:02:30;;;;;;;12.18;10.77;;;;;;;9.49;58.24;101634.78;5042213;28;20625;-25
2022/04/30 00:04:56;;;;;;;11.77;10.20;;;;;;;9.46;58.55;101643.53;5030820;28;20018;-25
2022/04/30 00:07:21;;;;;;;15.13;10.70;;;;;;;9.44;58.23;101628.59;5029086;28;20079;-25
2022/04/30 00:09:48;;;;;;;12.93;11.43;;;;;;;9.43;58.50;101635.59;5028257;28;20030;-25
2022/04/30 00:12:13;;;;;;;12.13;10.15;;;;;;;9.39;58.64;101628.53;5025879;28;20021;-25
2022/04/30 00:14:39;;;;;;;14.18;10.43;;;;;;;9.36;58.47;101624.13;5028907;28;20056;-25
2022/04/30 00:17:05;;;;;;;12.98;9.77;;;;;;;9.35;58.51;101622.38;5026485;28;20033;-25
2022/04/30 00:19:31;;;;;;;14.00;9.48;;;;;;;9.33;58.54;101618.81;5028286;28;20017;-25
2022/04/30 00:21:56;;;;;;;13.52;9.95;;;;;;;9.32;58.78;101622.31;5028322;28;20491;-26
2022/04/30 00:24:23;;;;;;;12.73;10.05;;;;;;;9.29;59.09;101617.00;5028726;28;20021;-25
2022/04/30 00:26:48;;;;;;;13.55;10.00;;;;;;;9.29;59.03;101605.59;5043108;28;20037;-26
2022/04/30 00:29:14;;;;;;;11.48;9.48;;;;;;;9.27;58.96;101602.06;5027542;28;20024;-26
2022/04/30 00:31:39;;;;;;;10.88;9.23;;;;;;;9.25;59.24;101604.69;5026907;28;20018;-25
2022/04/30 00:34:05;;;;;;;11.57;9.45;;;;;;;9.25;59.23;101623.13;5043366;28;20439;-26
2022/04/30 00:36:31;;;;;;;10.40;8.38;;;;;;;9.23;59.39;101627.47;5029033;28;20060;-26
2022/04/30 00:38:56;;;;;;;13.30;10.02;;;;;;;9.22;59.57;101620.44;5025543;28;20029;-25
2022/04/30 00:41:23;;;;;;;12.02;9.00;;;;;;;9.21;59.60;101613.41;5025175;28;20055;-25
2022/04/30 00:43:51;;;;;;;10.43;8.60;;;;;;;9.20;59.69;101614.25;5027418;28;20519;-26
2022/04/30 00:46:18;;;;;;;9.70;8.50;;;;;;;9.20;59.50;101615.16;5029170;28;20075;-26
2022/04/30 00:48:44;;;;;;;10.38;7.85;;;;;;;9.19;59.79;101616.03;5027066;28;20097;-25
2022/04/30 00:51:11;;;;;;;10.38;8.23;;;;;;;9.18;60.06;101608.09;5029258;28;20401;-25
2022/04/30 00:53:38;;;;;;;10.02;7.43;;;;;;;9.15;59.95;101603.69;5029405;28;20370;-24
2022/04/30 00:56:05;;;;;;;11.95;7.93;;;;;;;9.17;60.15;101607.22;5027289;28;20047;-24
2022/04/30 00:58:32;;;;;;;10.27;7.68;;;;;;;9.17;60.46;101601.09;5026153;28;20033;-28
2022/04/30 01:00:59;;;;;;;14.50;8.93;;;;;;;9.17;60.51;101608.97;5043345;28;20025;-24
2022/04/30 01:03:25;;;;;;;12.95;7.45;;;;;;;9.16;60.25;101604.56;5010532;28;20021;-24
2022/04/30 01:05:51;;;;;;;9.88;7.78;;;;;;;9.16;60.79;101607.19;5028355;28;20079;-24
2022/04/30 01:08:17;;;;;;;9.05;6.70;;;;;;;9.14;60.56;101606.31;5028632;28;20033;-25
2022/04/30 01:10:42;;;;;;;10.77;6.97;;;;;;;9.12;60.33;101611.56;5041520;28;20083;-25
2022/04/30 01:13:08;;;;;;;9.07;6.80;;;;;;;9.14;60.39;101616.84;5028058;28;20035;-26
2022/04/30 01:15:34;;;;;;;9.55;6.68;;;;;;;9.11;60.42;101608.03;5024546;28;20021;-28
2022/04/30 01:17:59;;;;;;;11.45;7.03;;;;;;;9.11;60.29;101608.03;5023373;28;20074;-25
2022/04/30 01:20:26;;;;;;;9.55;6.85;;;;;;;9.12;60.47;101606.28;5026422;28;20845;-24
2022/04/30 01:22:57;;;;;;;9.30;7.07;;;;;;;9.04;60.72;101585.13;5028141;28;20075;-24
2022/04/30 01:25:24;;;;;;;11.05;6.32;;;;;;;9.10;61.22;101606.25;5024597;28;20868;-23
2022/04/30 01:27:51;;;;;;;11.18;6.15;;;;;;;9.08;61.07;101602.75;5029470;28;20025;-24
2022/04/30 01:30:19;;;;;;;11.52;6.45;;;;;;;9.07;61.18;101598.31;5026114;28;20119;-26
2022/04/30 01:38:12;;;;;;;7.53;6.32;;;;;;;9.06;61.39;101600.94;5027962;28;20555;-24
2022/04/30 01:40:37;;;;;;;7.60;5.88;;;;;;;9.04;61.28;101600.06;5027059;28;20033;-30
2022/04/30 01:43:05;;;;;;;11.35;6.80;;;;;;;9.04;61.63;101595.66;5022269;28;20103;-26
2022/04/30 01:45:31;;;;;;;13.32;7.18;;;;;;;9.04;61.58;101602.69;5023325;28;20034;-26
2022/04/30 01:47:59;;;;;;;9.88;6.88;;;;;;;9.02;61.56;101601.75;5025569;28;20120;-26
2022/04/30 01:50:24;;;;;;;8.85;6.90;;;;;;;9.02;61.68;101591.25;5024519;28;20140;-26
2022/04/30 01:52:50;;;;;;;11.43;7.85;;;;;;;9.01;61.76;101593.00;5022421;28;20452;-26
2022/04/30 01:55:15;;;;;;;8.73;7.25;;;;;;;9.02;61.60;101593.88;5027475;28;20609;-26
2022/04/30 01:57:42;;;;;;;10.77;7.80;;;;;;;9.00;61.96;101591.22;5029644;28;20515;-26
2022/04/30 02:00:14;;;;;;;10.57;7.22;;;;;;;9.00;61.86;101588.59;5029224;28;20051;-26
2022/04/30 02:02:44;;;;;;;7.50;6.53;;;;;;;8.98;61.83;101585.06;5026169;28;20041;-25
2022/04/30 02:05:12;;;;;;;14.15;7.72;;;;;;;8.98;62.10;101579.81;5026457;28;20034;-26
2022/04/30 02:07:40;;;;;;;9.27;8.23;;;;;;;8.97;62.11;101589.44;5027198;28;20051;-24
2022/04/30 02:10:10;;;;;;;8.93;6.70;;;;;;;8.96;62.07;101587.69;5009121;28;20030;-26
2022/04/30 02:12:36;;;;;;;9.73;7.93;;;;;;;8.97;61.75;101586.81;5023989;28;20021;-25
2022/04/30 02:15:01;;;;;;;8.73;6.75;;;;;;;8.96;61.88;101582.41;5022807;28;20037;-26
2022/04/30 02:17:29;;;;;;;10.40;8.05;;;;;;;8.94;61.80;101588.53;5024599;28;20033;-26
2022/04/30 02:22:40;;;;;;;11.30;8.02;;;;;;;8.91;62.21;101578.88;5024201;28;20113;-29
2022/04/30 02:25:09;;;;;;;10.23;7.82;;;;;;;8.91;62.18;101575.34;5026826;28;20121;-25
2022/04/30 02:27:56;;;;;;;11.73;8.95;;;;;;;8.92;62.33;101578.00;5024740;28;20018;-24
2022/04/30 02:30:22;;;;;;;10.48;7.90;;;;;;;8.89;61.71;101571.78;5027096;28;20554;-23
2022/04/30 02:32:53;;;;;;;12.57;7.75;;;;;;;8.90;62.09;101566.53;5024286;28;20067;-24
2022/04/30 02:35:24;;;;;;;10.43;7.78;;;;;;;8.90;61.74;101565.69;5026159;28;20025;-26
2022/04/30 02:37:52;;;;;;;11.60;8.00;;;;;;;8.88;61.62;101565.66;5027136;28;20441;-23
2022/04/30 02:40:18;;;;;;;11.75;8.43;;;;;;;8.87;61.74;101560.38;5024168;28;20115;-23
2022/04/30 02:42:46;;;;;;;9.57;8.10;;;;;;;8.87;62.13;101573.53;5024788;28;20053;-24
2022/04/30 02:45:13;;;;;;;11.27;8.52;;;;;;;8.85;62.20;101574.41;5025406;28;20021;-25
2022/04/30 02:47:39;;;;;;;12.25;8.30;;;;;;;8.82;62.13;101563.84;5006353;28;20032;-24
2022/04/30 02:50:09;;;;;;;13.63;9.23;;;;;;;8.81;62.33;101556.78;5027032;28;20071;-25
2022/04/30 02:52:35;;;;;;;11.75;8.70;;;;;;;8.80;62.29;101562.06;5027184;28;20017;-24
2022/04/30 02:55:01;;;;;;;8.55;7.65;;;;;;;8.80;62.17;101557.66;5030211;28;20029;-24
2022/04/30 02:59:53;;;;;;;12.05;8.32;;;;;;;8.78;62.06;101550.63;5030881;28;20040;-24
2022/04/30 03:00:26;;;;;;;11.48;8.88;;;;;;;8.76;61.51;101557.59;5027429;28;20491;-24
2022/04/30 03:02:51;;;;;;;10.70;8.73;;;;;;;8.75;61.79;101545.31;5027960;28;20029;-29
2022/04/30 03:05:18;;;;;;;12.40;8.60;;;;;;;8.74;61.80;101544.44;5029949;28;20036;-26
2022/04/30 03:07:45;;;;;;;10.07;8.05;;;;;;;8.73;61.56;101551.44;5030295;28;20029;-23
2022/04/30 03:10:10;;;;;;;10.85;8.75;;;;;;;8.71;61.71;101553.16;5043622;28;20474;-24
2022/04/30 03:12:36;;;;;;;13.35;9.65;;;;;;;8.71;61.55;101552.31;5028520;28;20029;-25
2022/04/30 03:15:01;;;;;;;13.00;9.05;;;;;;;8.68;62.10;101550.50;5029125;28;20022;-25
2022/04/30 03:22:55;;;;;;;11.43;9.25;;;;;;;8.65;62.29;101553.09;5029500;28;20037;-26
2022/04/30 03:25:20;;;;;;;10.82;8.40;;;;;;;8.63;62.83;101546.91;5029163;28;20021;-26
2022/04/30 03:27:45;;;;;;;12.98;9.95;;;;;;;8.62;62.80;101549.53;5030283;28;20497;-26
2022/04/30 03:30:12;;;;;;;11.00;9.63;;;;;;;8.62;62.68;101555.69;5031392;28;20505;-26
2022/04/30 03:32:37;;;;;;;12.73;10.05;;;;;;;8.60;62.74;101547.78;5029525;28;20082;-26
2022/04/30 03:35:03;;;;;;;12.32;9.07;;;;;;;8.60;62.75;101544.25;5029065;28;20029;-26
2022/04/30 03:37:28;;;;;;;12.18;9.63;;;;;;;8.55;63.01;101544.22;5027206;28;20516;-26
2022/04/30 03:39:54;;;;;;;12.65;9.27;;;;;;;8.55;63.25;101544.22;5026731;28;20033;-25
2022/04/30 03:42:19;;;;;;;11.45;9.13;;;;;;;8.53;63.08;101543.28;5022228;28;20086;-26
2022/04/30 03:44:44;;;;;;;13.52;9.07;;;;;;;8.51;63.22;101552.00;5027412;28;20152;-25
2022/04/30 03:47:10;;;;;;;13.10;8.80;;;;;;;8.51;62.97;101552.88;5027258;28;20053;-25
2022/04/30 03:49:35;;;;;;;12.57;9.52;;;;;;;8.52;62.76;101548.50;5027701;28;20632;-25
2022/04/30 03:52:00;;;;;;;14.35;9.90;;;;;;;8.47;62.98;101546.69;5029310;28;20017;-25
2022/04/30 03:54:26;;;;;;;12.52;8.80;;;;;;;8.47;62.89;101549.31;5030167;28;20029;-26
2022/04/30 03:56:51;;;;;;;13.32;9.60;;;;;;;8.46;63.02;101559.81;5028161;28;20312;-26
2022/04/30 03:59:16;;;;;;;15.02;8.45;;;;;;;8.47;62.43;101556.31;5029536;28;20489;-26
2022/04/30 04:01:42;;;;;;;11.80;8.98;;;;;;;8.45;62.80;101561.56;5029064;28;20052;-25
2022/04/30 04:04:07;;;;;;;12.38;9.25;;;;;;;8.42;63.18;101551.00;5027246;28;20057;-26
2022/04/30 04:06:32;;;;;;;10.85;8.73;;;;;;;8.41;63.02;101556.25;5029552;28;20032;-25
2022/04/30 04:08:59;;;;;;;12.00;9.07;;;;;;;8.40;63.42;101562.38;5042969;28;20381;-26
2022/04/30 04:11:26;;;;;;;12.93;9.10;;;;;;;8.39;62.99;101563.22;5029975;28;21119;-26
2022/04/30 04:19:22;;;;;;;12.57;9.43;;;;;;;8.36;62.99;101563.19;5028163;28;20121;-25
2022/04/30 04:21:47;;;;;;;11.98;8.60;;;;;;;8.34;63.11;101566.66;5023112;28;20040;-26
2022/04/30 04:26:56;;;;;;;10.93;8.48;;;;;;;8.34;62.81;101566.66;5024578;28;20040;-26
2022/04/30 04:29:22;;;;;;;10.50;8.38;;;;;;;8.33;62.63;101570.16;5027928;28;20017;-26
2022/04/30 04:31:47;;;;;;;11.75;8.93;;;;;;;8.33;62.79;101567.53;5026738;28;20099;-26
2022/04/30 04:34:12;;;;;;;12.02;9.13;;;;;;;8.31;62.69;101563.97;5022519;28;20039;-26
2022/04/30 04:36:38;;;;;;;10.48;8.77;;;;;;;8.31;63.09;101566.59;5026340;28;20027;-26
2022/04/30 04:39:11;;;;;;;12.48;10.25;;;;;;;8.29;63.16;101570.97;5026106;28;20044;-26
2022/04/30 04:41:36;;;;;;;11.98;9.60;;;;;;;8.29;62.69;101563.09;5027719;28;20466;-26
2022/04/30 04:44:02;;;;;;;12.32;10.40;;;;;;;8.28;63.08;101561.34;5029182;28;20039;-26
2022/04/30 04:46:28;;;;;;;11.55;10.18;;;;;;;8.27;63.00;101564.78;5023772;28;20083;-26
2022/04/30 04:48:53;;;;;;;16.60;12.20;;;;;;;8.26;63.20;101555.16;5026854;28;20040;-26
2022/04/30 04:51:20;;;;;;;22.80;15.27;;;;;;;8.26;63.39;101560.41;5027524;28;20021;-25
2022/04/30 04:53:45;;;;;;;16.92;14.82;;;;;;;8.27;63.03;101563.94;5029584;28;20064;-25
2022/04/30 04:56:10;;;;;;;18.20;15.50;;;;;;;8.27;63.36;101564.78;5023558;28;20032;-27
2022/04/30 04:58:36;;;;;;;17.15;15.35;;;;;;;8.26;63.61;101559.50;5030052;28;20112;-25
2022/04/30 05:01:02;;;;;;;15.82;14.10;;;;;;;8.27;63.70;101556.03;5027481;28;20128;-25
2022/04/30 05:03:27;;;;;;;17.20;13.65;;;;;;;8.27;63.84;101567.44;5024849;28;20485;-26
2022/04/30 05:05:53;;;;;;;17.67;15.13;;;;;;;8.27;63.77;101562.16;5030740;28;20021;-26
2022/04/30 05:08:18;;;;;;;17.00;13.80;;;;;;;8.27;63.86;101561.31;5027001;28;20029;-26
2022/04/30 05:10:43;;;;;;;14.98;13.18;;;;;;;8.26;64.05;101567.41;5027343;28;20061;-26
2022/04/30 05:13:09;;;;;;;13.60;12.15;;;;;;;8.26;63.95;101567.41;5024842;28;20034;-26
2022/04/30 05:15:34;;;;;;;13.63;11.18;;;;;;;8.26;64.43;101565.66;5020226;28;20481;-26
2022/04/30 05:17:59;;;;;;;14.65;10.32;;;;;;;8.28;64.17;101573.56;5027128;28;20111;-26
2022/04/30 05:20:25;;;;;;;20.02;11.95;;;;;;;8.27;64.05;101575.31;5023938;28;20037;-26
2022/04/30 05:22:51;;;;;;;13.02;10.25;;;;;;;8.27;64.31;101575.31;5042657;28;20037;-26
2022/04/30 05:25:16;;;;;;;12.65;10.73;;;;;;;8.26;64.70;101570.03;5027288;28;20025;-26
2022/04/30 05:27:41;;;;;;;12.68;9.63;;;;;;;8.29;64.66;101573.59;5025692;28;20370;-26
2022/04/30 05:30:07;;;;;;;12.75;9.52;;;;;;;8.28;64.55;101585.00;5021780;28;20115;-26
2022/04/30 05:32:33;;;;;;;11.73;9.75;;;;;;;8.29;64.38;101577.97;5023377;28;20482;-26
2022/04/30 05:34:58;;;;;;;9.50;8.50;;;;;;;8.30;64.67;101588.50;5024420;28;20156;-26
2022/04/30 05:37:23;;;;;;;14.30;9.02;;;;;;;8.31;64.28;101581.50;5024426;28;20125;-26
2022/04/30 05:39:49;;;;;;;11.25;9.65;;;;;;;8.32;64.13;101573.66;5025240;28;20072;-26
2022/04/30 05:42:14;;;;;;;13.55;9.60;;;;;;;8.32;63.89;101578.91;5026556;28;20453;-26
2022/04/30 05:44:39;;;;;;;12.68;9.48;;;;;;;8.34;63.97;101581.56;5007358;28;20050;-26
2022/04/30 05:47:05;;;;;;;10.40;9.40;;;;;;;8.36;64.31;101582.44;5025202;28;20076;-26
2022/04/30 05:49:31;;;;;;;12.05;9.82;;;;;;;8.37;64.27;101578.09;5025198;28;20151;-26
2022/04/30 05:51:56;;;;;;;11.82;10.40;;;;;;;8.37;64.47;101580.72;5022267;28;20021;-26
2022/04/30 05:54:22;;;;;;;15.15;9.50;;;;;;;8.39;64.43;101589.50;5025609;28;20116;-25
2022/04/30 05:56:47;;;;;;;10.75;9.43;;;;;;;8.40;64.85;101586.03;5025572;28;20057;-26
2022/04/30 05:59:12;;;;;;;11.18;9.80;;;;;;;8.41;64.71;101587.78;5024019;28;20112;-26
2022/04/30 06:01:37;;;;;;;13.90;11.50;;;;;;;8.43;64.35;101593.94;5021776;28;20086;-26
2022/04/30 06:04:03;;;;;;;11.70;9.30;;;;;;;8.44;64.01;101596.59;5023461;28;20083;-26
2022/04/30 06:06:28;;;;;;;12.98;10.27;;;;;;;8.45;64.56;101601.00;5026949;28;20026;-26
2022/04/30 06:08:54;;;;;;;13.32;10.10;;;;;;;8.48;64.30;101602.78;5025597;28;20035;-26
2022/04/30 06:11:19;;;;;;;9.68;8.63;;;;;;;8.51;64.30;101604.56;5025598;28;20489;-25
2022/04/30 06:13:45;;;;;;;11.35;10.15;;;;;;;8.50;64.90;101601.06;5020103;28;20030;-26
2022/04/30 06:16:10;;;;;;;17.40;9.10;;;;;;;8.53;64.88;101598.50;5023033;28;20076;-26
2022/04/30 06:18:36;;;;;;;14.48;9.02;;;;;;;8.56;64.61;101601.19;5020997;28;20370;-25
2022/04/30 06:21:01;;;;;;;11.90;8.98;;;;;;;8.58;64.29;101595.94;5005200;28;20436;-26
2022/04/30 06:23:27;;;;;;;11.13;10.02;;;;;;;8.60;64.87;101605.63;5016740;28;20025;-26
2022/04/30 06:25:52;;;;;;;10.73;9.23;;;;;;;8.62;65.26;101596.88;5025862;28;20032;-25
2022/04/30 06:28:17;;;;;;;14.45;10.02;;;;;;;8.64;64.52;101596.00;5026761;28;20082;-25
2022/04/30 06:30:43;;;;;;;11.98;9.25;;;;;;;8.67;64.44;101596.06;5031255;28;20044;-26
2022/04/30 06:33:09;;;;;;;15.02;10.18;;;;;;;8.68;65.13;101596.97;5029386;28;20041;-26
2022/04/30 06:35:35;;;;;;;10.48;7.53;;;;;;;8.71;64.95;101602.28;5029580;28;20029;-26
2022/04/30 06:38:00;;;;;;;9.73;7.95;;;;;;;8.74;65.13;101602.31;5029841;28;20098;-26
2022/04/30 06:40:26;;;;;;;15.70;8.45;;;;;;;8.77;64.65;101596.22;5027272;28;20428;-26
2022/04/30 06:42:51;;;;;;;9.02;8.00;;;;;;;8.80;64.90;101606.78;5009401;28;20040;-26
2022/04/30 06:45:17;;;;;;;10.43;7.75;;;;;;;8.82;64.76;101607.66;5029948;28;20022;-25
2022/04/30 06:47:43;;;;;;;9.57;7.32;;;;;;;8.85;64.74;101608.59;5029750;28;20025;-26
2022/04/30 06:50:09;;;;;;;10.02;8.18;;;;;;;8.90;64.47;101608.63;5026357;28;20029;-26
2022/04/30 06:52:34;;;;;;;9.38;7.85;;;;;;;8.91;64.57;101613.06;5024591;28;20113;-26
2022/04/30 06:57:45;;;;;;;10.52;8.73;;;;;;;8.99;64.58;101610.50;5027337;28;20129;-26
2022/04/30 07:02:55;;;;;;;9.27;7.07;;;;;;;9.06;64.65;101627.25;5024878;28;20040;-26
2022/04/30 07:05:21;;;;;;;10.13;7.50;;;;;;;9.10;64.77;101622.06;5010084;28;20026;-26
2022/04/30 07:07:46;;;;;;;7.90;6.53;;;;;;;9.14;64.47;101632.63;5025439;28;20028;-23
2022/04/30 07:10:12;;;;;;;7.70;6.60;;;;;;;9.17;64.52;101632.66;5025671;28;20500;-24
2022/04/30 07:12:37;;;;;;;9.27;7.57;;;;;;;9.21;64.68;101631.84;5027587;28;20493;-24
2022/04/30 07:15:02;;;;;;;9.45;6.75;;;;;;;9.27;63.80;101629.25;5026468;28;20500;-25
2022/04/30 07:17:29;;;;;;;8.18;7.30;;;;;;;9.31;64.03;101631.06;5024295;28;20029;-25
2022/04/30 07:19:54;;;;;;;10.88;6.88;;;;;;;9.36;64.07;101639.91;5025888;28;20025;-24
2022/04/30 07:22:19;;;;;;;8.27;7.47;;;;;;;9.41;63.86;101629.44;5028502;28;20545;-25
2022/04/30 07:24:45;;;;;;;10.32;7.20;;;;;;;9.48;64.22;101636.50;5047197;28;20569;-24
2022/04/30 07:27:10;;;;;;;8.20;6.90;;;;;;;9.54;63.61;101627.81;5029623;28;20033;-24
2022/04/30 07:29:38;;;;;;;11.05;6.75;;;;;;;9.61;63.60;101628.78;5030747;28;20397;-25
2022/04/30 07:32:07;;;;;;;8.48;6.72;;;;;;;9.65;63.81;101632.31;5022230;28;20083;-26
2022/04/30 07:34:33;;;;;;;9.93;6.68;;;;;;;9.72;63.25;101631.50;5027032;28;20500;-25
2022/04/30 07:36:58;;;;;;;8.77;6.78;;;;;;;9.81;63.26;101644.78;5043656;28;20021;-24
2022/04/30 07:39:23;;;;;;;10.10;7.25;;;;;;;9.86;63.74;101643.06;5022074;28;20478;-24
2022/04/30 07:41:49;;;;;;;9.40;6.95;;;;;;;9.94;63.20;101648.38;5027220;28;20516;-25
2022/04/30 07:44:15;;;;;;;9.13;6.55;;;;;;;10.00;63.12;101643.19;5028614;28;20468;-24
2022/04/30 07:46:40;;;;;;;10.05;6.78;;;;;;;10.09;63.01;101649.41;5030406;28;20104;-25
2022/04/30 07:49:06;;;;;;;9.10;6.43;;;;;;;10.17;63.01;101644.22;5029690;28;20029;-25
2022/04/30 07:51:38;;;;;;;8.57;6.60;;;;;;;10.27;62.94;101636.38;5027903;28;20017;-25
2022/04/30 07:54:04;;;;;;;10.82;7.00;;;;;;;10.35;62.88;101643.47;5043856;28;20108;-25
2022/04/30 07:56:30;;;;;;;10.68;6.47;;;;;;;10.44;62.86;101648.78;5031321;28;20018;-25
2022/04/30 07:58:55;;;;;;;8.93;6.72;;;;;;;10.53;63.00;101650.66;5029439;28;20044;-25
2022/04/30 08:01:21;;;;;;;9.05;6.75;;;;;;;10.62;62.63;101645.44;5029629;28;20025;-25
2022/04/30 08:03:46;;;;;;;15.60;6.78;;;;;;;10.69;62.51;101651.63;5027067;28;20030;-25
2022/04/30 08:06:11;;;;;;;8.70;6.72;;;;;;;10.78;62.21;101650.81;5028282;28;20033;-25
2022/04/30 08:08:37;;;;;;;9.80;7.03;;;;;;;10.85;61.72;101652.63;5025915;28;20120;-24
2022/04/30 08:11:02;;;;;;;7.65;6.85;;;;;;;10.95;61.97;101648.28;5027374;28;20079;-24
2022/04/30 08:13:28;;;;;;;8.05;6.68;;;;;;;11.06;62.62;101645.66;5022012;28;20106;-24
2022/04/30 08:15:53;;;;;;;8.93;6.28;;;;;;;11.15;62.04;101644.84;5024613;28;20029;-25
2022/04/30 08:18:19;;;;;;;8.07;6.38;;;;;;;11.26;61.81;101644.88;5024269;28;20154;-26
2022/04/30 08:20:46;;;;;;;10.55;8.23;;;;;;;11.31;62.17;101642.25;5025174;28;20334;-25
2022/04/30 08:23:12;;;;;;;9.13;6.35;;;;;;;11.46;62.26;101646.69;5028268;28;20022;-26
2022/04/30 08:25:38;;;;;;;8.32;6.60;;;;;;;11.56;62.53;101640.56;5027997;28;20395;-26
2022/04/30 08:28:04;;;;;;;10.30;6.40;;;;;;;11.66;62.12;101639.69;5025367;28;20033;-26
2022/04/30 08:30:29;;;;;;;9.02;6.45;;;;;;;11.78;62.98;101640.59;5028401;28;20021;-26
2022/04/30 08:32:55;;;;;;;8.45;5.88;;;;;;;11.88;62.51;101638.84;5028144;28;20523;-26
2022/04/30 08:35:20;;;;;;;9.00;7.20;;;;;;;11.96;61.16;101641.47;5011079;28;20029;-26
2022/04/30 08:37:46;;;;;;;9.65;6.85;;;;;;;12.05;61.15;101641.50;5028748;28;20034;-26
2022/04/30 08:40:11;;;;;;;8.93;6.72;;;;;;;12.17;62.08;101640.66;5030017;28;20033;-26
2022/04/30 08:42:37;;;;;;;7.68;6.55;;;;;;;12.28;61.56;101632.72;5025070;28;20040;-26
2022/04/30 08:45:03;;;;;;;8.15;6.07;;;;;;;12.37;61.67;101637.97;5019209;28;20048;-26
2022/04/30 08:47:29;;;;;;;9.63;6.47;;;;;;;12.44;60.62;101633.59;5019036;28;20035;-24
2022/04/30 08:49:56;;;;;;;8.88;6.15;;;;;;;12.53;60.30;101630.03;5024778;28;20029;-24
2022/04/30 08:52:21;;;;;;;8.55;6.38;;;;;;;12.66;61.75;101626.47;5026009;28;20477;-25
2022/04/30 08:54:46;;;;;;;7.57;6.07;;;;;;;12.80;61.29;101630.84;5025374;28;20025;-24
2022/04/30 08:57:12;;;;;;;8.48;5.88;;;;;;;12.93;61.25;101627.28;5020542;28;20115;-25
2022/04/30 08:59:37;;;;;;;8.90;6.07;;;;;;;13.06;61.86;101619.28;5024594;28;20080;-25
2022/04/30 09:02:08;;;;;;;7.72;6.10;;;;;;;13.24;61.80;101625.38;5019867;28;20704;-25
2022/04/30 09:04:45;;;;;;;7.75;6.35;;;;;;;13.38;61.70;101620.91;5021755;28;20072;-25
2022/04/30 09:07:15;;;;;;;7.78;5.78;;;;;;;13.51;61.19;101623.50;5025041;28;20091;-25
2022/04/30 09:09:41;;;;;;;7.72;5.90;;;;;;;13.66;61.66;101620.75;5022250;28;20029;-25
2022/04/30 09:12:08;;;;;;;7.60;5.97;;;;;;;13.82;61.35;101613.56;5044263;28;20028;-25
2022/04/30 09:14:33;;;;;;;9.07;5.55;;;;;;;14.00;61.82;101616.09;5028720;28;20398;-25
2022/04/30 09:17:07;;;;;;;7.07;5.85;;;;;;;14.13;61.23;101607.13;5043700;28;20034;-25
2022/04/30 09:19:44;;;;;;;6.63;5.57;;;;;;;14.34;61.48;101605.19;5025288;28;20513;-25
2022/04/30 09:22:09;;;;;;;9.40;6.05;;;;;;;14.52;60.47;101605.88;5025697;28;20025;-25
2022/04/30 09:24:48;;;;;;;6.53;5.30;;;;;;;14.66;60.27;101598.63;5010509;28;20021;-25
2022/04/30 09:27:17;;;;;;;6.82;5.68;;;;;;;14.79;59.47;101596.75;5027801;28;20478;-25
2022/04/30 09:29:43;;;;;;;6.75;5.93;;;;;;;14.93;59.05;101587.72;5029239;28;20156;-25
2022/04/30 09:32:08;;;;;;;7.43;5.40;;;;;;;15.06;58.67;101599.06;5030077;28;20025;-25
2022/04/30 09:37:41;;;;;;;9.48;5.45;;;;;;;15.29;57.20;101597.88;5027701;28;20542;-25
2022/04/30 09:40:20;;;;;;;9.18;5.57;;;;;;;15.38;56.63;101597.75;5036972;28;20042;-25
2022/04/30 09:42:46;;;;;;;6.60;5.68;;;;;;;15.46;56.64;101590.53;5027592;28;20124;-25
2022/04/30 09:45:34;;;;;;;7.28;5.57;;;;;;;15.56;56.68;101582.41;5027680;28;20026;-25
2022/04/30 09:48:01;;;;;;;5.97;5.38;;;;;;;15.68;56.14;101584.00;5028515;28;20037;-25
2022/04/30 09:56:06;;;;;;;5.95;5.13;;;;;;;15.90;55.18;101576.53;5028604;28;20446;-25
2022/04/30 09:58:35;;;;;;;6.07;5.47;;;;;;;15.95;55.11;101582.72;5028739;28;20623;-25
2022/04/30 10:01:01;;;;;;;7.97;5.63;;;;;;;15.99;54.37;101576.44;5022950;28;20515;-25
2022/04/30 10:03:30;;;;;;;7.20;5.50;;;;;;;16.07;54.12;101578.94;5046530;28;20512;-25
2022/04/30 10:06:00;;;;;;;5.60;4.75;;;;;;;16.16;54.19;101572.59;5032463;28;20029;-25
2022/04/30 10:08:28;;;;;;;9.23;5.40;;;;;;;16.23;54.47;101568.91;5032531;28;20029;-25
2022/04/30 10:11:01;;;;;;;7.90;5.75;;;;;;;16.29;54.37;101567.91;5033812;28;20496;-25
2022/04/30 10:13:44;;;;;;;8.35;5.22;;;;;;;16.36;53.61;101568.66;5023549;28;20045;-25
2022/04/30 10:16:19;;;;;;;6.60;5.93;;;;;;;16.43;53.74;101559.66;5033842;28;20017;-25
2022/04/30 10:18:50;;;;;;;8.20;6.43;;;;;;;16.51;53.66;101559.53;5033808;28;20037;-25
2022/04/30 10:21:17;;;;;;;7.53;5.63;;;;;;;16.59;54.04;101559.34;5032424;28;20033;-25
2022/04/30 10:23:42;;;;;;;6.60;5.18;;;;;;;16.64;54.06;101554.84;5032486;28;20041;-25
2022/04/30 10:26:07;;;;;;;9.32;5.40;;;;;;;16.72;53.26;101554.66;5033180;28;20028;-25
2022/04/30 10:28:33;;;;;;;7.57;5.15;;;;;;;16.76;53.40;101546.59;5032099;28;20068;-25
2022/04/30 10:31:02;;;;;;;6.35;4.70;;;;;;;16.85;53.04;101549.94;5030946;28;20136;-25
2022/04/30 10:33:28;;;;;;;6.38;4.82;;;;;;;16.90;52.20;101548.94;5033941;28;20087;-25
2022/04/30 10:36:08;;;;;;;8.65;4.88;;;;;;;17.00;52.80;101548.72;5031092;28;20021;-25
2022/04/30 10:38:33;;;;;;;6.70;5.05;;;;;;;17.08;53.03;101535.28;5032390;28;20389;-25
2022/04/30 10:41:00;;;;;;;9.23;5.28;;;;;;;17.12;52.22;101529.84;5032049;28;20021;-25
2022/04/30 10:43:26;;;;;;;5.47;4.18;;;;;;;17.23;52.60;101534.91;5030864;28;20055;-25
2022/04/30 10:45:53;;;;;;;6.43;5.20;;;;;;;17.29;52.25;101529.47;5034050;28;20033;-24
2022/04/30 10:48:20;;;;;;;9.23;4.88;;;;;;;17.37;52.08;101526.59;5029683;28;20657;-25
2022/04/30 10:50:47;;;;;;;5.40;4.65;;;;;;;17.44;52.01;101532.69;5044735;28;20036;-25
2022/04/30 10:53:14;;;;;;;5.40;4.53;;;;;;;17.53;52.39;101521.78;5033679;28;20087;-25
2022/04/30 10:55:40;;;;;;;6.45;4.95;;;;;;;17.61;51.87;101526.03;5047394;28;20553;-25
2022/04/30 10:58:05;;;;;;;6.88;5.20;;;;;;;17.69;52.21;101521.38;5032398;28;20021;-25
2022/04/30 11:00:31;;;;;;;7.50;4.80;;;;;;;17.75;51.41;101521.22;5031529;28;20515;-25
2022/04/30 11:03:07;;;;;;;8.27;4.80;;;;;;;17.88;52.25;101512.91;5031306;28;20072;-25
2022/04/30 11:05:32;;;;;;;4.38;3.97;;;;;;;17.97;52.09;101504.63;5030097;28;20048;-25
2022/04/30 11:08:01;;;;;;;5.28;4.10;;;;;;;18.04;52.19;101500.88;5035278;28;20071;-25
2022/04/30 11:10:26;;;;;;;6.43;3.97;;;;;;;18.13;51.73;101501.56;5031367;28;20032;-25
2022/04/30 11:13:01;;;;;;;6.50;4.45;;;;;;;18.24;51.73;101502.16;5014815;28;20021;-25
2022/04/30 11:15:27;;;;;;;5.78;4.25;;;;;;;18.32;51.64;101500.16;5031360;28;20026;-25
2022/04/30 11:17:57;;;;;;;5.07;4.57;;;;;;;18.40;51.30;101491.91;5033285;28;20503;-25
2022/04/30 11:20:24;;;;;;;6.13;4.53;;;;;;;18.54;51.44;101494.19;5030685;28;20021;-25
2022/04/30 11:22:56;;;;;;;4.80;4.28;;;;;;;18.63;51.33;101495.69;5033989;28;20504;-25
2022/04/30 11:25:38;;;;;;;6.30;4.22;;;;;;;18.73;51.28;101482.94;5030788;28;20079;-25
2022/04/30 11:28:08;;;;;;;7.03;4.50;;;;;;;18.84;50.85;101493.31;5030692;28;20489;-25
2022/04/30 11:30:37;;;;;;;4.93;4.43;;;;;;;18.90;50.38;101484.25;5033081;28;20408;-25
2022/04/30 11:33:04;;;;;;;6.47;4.53;;;;;;;19.00;50.31;101480.31;5032061;28;20087;-25
2022/04/30 11:35:29;;;;;;;5.70;4.05;;;;;;;19.07;50.04;101481.03;5031428;28;20367;-26
2022/04/30 11:37:54;;;;;;;4.78;4.30;;;;;;;19.18;50.19;101472.69;5030146;28;20601;-25
2022/04/30 11:40:23;;;;;;;8.38;4.18;;;;;;;19.27;50.01;101476.88;5045896;28;20117;-25
2022/04/30 11:42:59;;;;;;;6.97;4.00;;;;;;;19.33;49.65;101472.16;5029903;28;20028;-25
2022/04/30 11:45:29;;;;;;;5.43;4.80;;;;;;;19.42;49.32;101470.13;5012295;28;20027;-25
2022/04/30 11:47:56;;;;;;;7.43;4.37;;;;;;;19.51;49.58;101471.59;5030018;28;20025;-25
2022/04/30 11:50:21;;;;;;;8.15;4.78;;;;;;;19.58;48.98;101465.13;5029942;28;20473;-25
2022/04/30 11:52:47;;;;;;;4.15;3.75;;;;;;;19.67;48.93;101467.47;5026125;28;20083;-25
2022/04/30 11:55:13;;;;;;;6.07;4.55;;;;;;;19.73;49.07;101459.22;5030946;28;20108;-25
2022/04/30 11:57:41;;;;;;;5.70;4.07;;;;;;;19.81;48.98;101460.75;5028496;28;20048;-25